Terminal Aerodrome Forecast
Issued by NWS Sterling, VA

Current Version | Previous Version | Graphics & Text | Print | Product List | Glossary On
Versions: 1 2 3 4 5 6 7 8 9 10 11 12 13 14 15 16
000
FTUS41 KLWX 082341
TAFMRB
TAF
KMRB 082341Z 0900/0924 00000KT P6SM SKC
     FM090600 00000KT 4SM BR OVC080
     FM090900 00000KT 1SM BR OVC030
     FM091200 00000KT 2SM -SN BR OVC015
     FM091800 VRB03KT 1 1/2SM BR OVC015=

USA.gov is the U.S. government's official web portal to all federal, state and local government web resources and services.